<?xml version="1.0" encoding="UTF-8" standalone="no" ?>
<gpx xmlns="http://www.topografix.com/GPX/1/1" xmlns:xsi="http://www.w3.org/2001/XMLSchema-instance" xsi:schemaLocation="http://www.topografix.com/GPX/1/1 http://www.topografix.com/GPX/1/1/gpx.xsd" version="1.1" creator="VisuGPX - https://www.visugpx.com">
  <metadata>
    <name>entrainement avec Françoise N°5</name>
    <desc><![CDATA[Sortie d'une heure environ, au dessus du camping de Seppois, par les champs...]]></desc>
  </metadata>
  <wpt lat="47.54142" lon="7.17074">
    <ele>367</ele>
    <name><![CDATA[0000042]]></name>
  </wpt>
  <wpt lat="47.5414" lon="7.1706">
    <ele>367</ele>
    <name><![CDATA[0000043]]></name>
  </wpt>
  <trk>
    <name><![CDATA[2018-04-06 12:01]]></name>
    <trkseg>
      <trkpt lat="47.54142" lon="7.17074">
        <ele>367</ele>
        <time>2018-04-06T10:02:07Z</time>
      </trkpt>
      <trkpt lat="47.54133" lon="7.17035">
        <ele>367</ele>
        <time>2018-04-06T10:02:19Z</time>
      </trkpt>
      <trkpt lat="47.54148" lon="7.1707">
        <ele>367</ele>
        <time>2018-04-06T10:02:26Z</time>
      </trkpt>
      <trkpt lat="47.5413" lon="7.17072">
        <ele>367</ele>
        <time>2018-04-06T10:03:45Z</time>
      </trkpt>
      <trkpt lat="47.54113" lon="7.17083">
        <ele>367</ele>
        <time>2018-04-06T10:03:59Z</time>
      </trkpt>
      <trkpt lat="47.54101" lon="7.17107">
        <ele>367</ele>
        <time>2018-04-06T10:04:11Z</time>
      </trkpt>
      <trkpt lat="47.54081" lon="7.17105">
        <ele>369</ele>
        <time>2018-04-06T10:04:23Z</time>
      </trkpt>
      <trkpt lat="47.54068" lon="7.17128">
        <ele>369</ele>
        <time>2018-04-06T10:04:37Z</time>
      </trkpt>
      <trkpt lat="47.54057" lon="7.17151">
        <ele>370</ele>
        <time>2018-04-06T10:04:47Z</time>
      </trkpt>
      <trkpt lat="47.54047" lon="7.17176">
        <ele>370</ele>
        <time>2018-04-06T10:04:59Z</time>
      </trkpt>
      <trkpt lat="47.54035" lon="7.17201">
        <ele>370</ele>
        <time>2018-04-06T10:05:11Z</time>
      </trkpt>
      <trkpt lat="47.54023" lon="7.17223">
        <ele>370</ele>
        <time>2018-04-06T10:05:21Z</time>
      </trkpt>
      <trkpt lat="47.54012" lon="7.17244">
        <ele>370</ele>
        <time>2018-04-06T10:05:31Z</time>
      </trkpt>
      <trkpt lat="47.53994" lon="7.17253">
        <ele>370</ele>
        <time>2018-04-06T10:05:43Z</time>
      </trkpt>
      <trkpt lat="47.53977" lon="7.17235">
        <ele>372</ele>
        <time>2018-04-06T10:05:55Z</time>
      </trkpt>
      <trkpt lat="47.53958" lon="7.17228">
        <ele>373</ele>
        <time>2018-04-06T10:06:05Z</time>
      </trkpt>
      <trkpt lat="47.53938" lon="7.17229">
        <ele>373</ele>
        <time>2018-04-06T10:06:19Z</time>
      </trkpt>
      <trkpt lat="47.53926" lon="7.1725">
        <ele>372</ele>
        <time>2018-04-06T10:06:29Z</time>
      </trkpt>
      <trkpt lat="47.53915" lon="7.17271">
        <ele>374</ele>
        <time>2018-04-06T10:06:39Z</time>
      </trkpt>
      <trkpt lat="47.53902" lon="7.17296">
        <ele>374</ele>
        <time>2018-04-06T10:06:51Z</time>
      </trkpt>
      <trkpt lat="47.53889" lon="7.1732">
        <ele>374</ele>
        <time>2018-04-06T10:07:03Z</time>
      </trkpt>
      <trkpt lat="47.53877" lon="7.17345">
        <ele>373</ele>
        <time>2018-04-06T10:07:15Z</time>
      </trkpt>
      <trkpt lat="47.53868" lon="7.17371">
        <ele>374</ele>
        <time>2018-04-06T10:07:27Z</time>
      </trkpt>
      <trkpt lat="47.53884" lon="7.17387">
        <ele>373</ele>
        <time>2018-04-06T10:07:39Z</time>
      </trkpt>
      <trkpt lat="47.53895" lon="7.17412">
        <ele>373</ele>
        <time>2018-04-06T10:07:51Z</time>
      </trkpt>
      <trkpt lat="47.53906" lon="7.17436">
        <ele>373</ele>
        <time>2018-04-06T10:08:01Z</time>
      </trkpt>
      <trkpt lat="47.53916" lon="7.17461">
        <ele>373</ele>
        <time>2018-04-06T10:08:11Z</time>
      </trkpt>
      <trkpt lat="47.53927" lon="7.17487">
        <ele>371</ele>
        <time>2018-04-06T10:08:23Z</time>
      </trkpt>
      <trkpt lat="47.53938" lon="7.17509">
        <ele>372</ele>
        <time>2018-04-06T10:08:33Z</time>
      </trkpt>
      <trkpt lat="47.53954" lon="7.17531">
        <ele>371</ele>
        <time>2018-04-06T10:08:45Z</time>
      </trkpt>
      <trkpt lat="47.53967" lon="7.17555">
        <ele>372</ele>
        <time>2018-04-06T10:08:57Z</time>
      </trkpt>
      <trkpt lat="47.53982" lon="7.17578">
        <ele>372</ele>
        <time>2018-04-06T10:09:09Z</time>
      </trkpt>
      <trkpt lat="47.53997" lon="7.176">
        <ele>372</ele>
        <time>2018-04-06T10:09:21Z</time>
      </trkpt>
      <trkpt lat="47.54012" lon="7.17622">
        <ele>373</ele>
        <time>2018-04-06T10:09:33Z</time>
      </trkpt>
      <trkpt lat="47.54027" lon="7.17643">
        <ele>373</ele>
        <time>2018-04-06T10:09:45Z</time>
      </trkpt>
      <trkpt lat="47.54041" lon="7.17661">
        <ele>374</ele>
        <time>2018-04-06T10:09:55Z</time>
      </trkpt>
      <trkpt lat="47.54054" lon="7.17685">
        <ele>376</ele>
        <time>2018-04-06T10:10:07Z</time>
      </trkpt>
      <trkpt lat="47.54068" lon="7.17705">
        <ele>377</ele>
        <time>2018-04-06T10:10:19Z</time>
      </trkpt>
      <trkpt lat="47.54083" lon="7.17725">
        <ele>383</ele>
        <time>2018-04-06T10:10:31Z</time>
      </trkpt>
      <trkpt lat="47.54074" lon="7.17751">
        <ele>382</ele>
        <time>2018-04-06T10:10:43Z</time>
      </trkpt>
      <trkpt lat="47.54059" lon="7.17775">
        <ele>382</ele>
        <time>2018-04-06T10:10:55Z</time>
      </trkpt>
      <trkpt lat="47.54047" lon="7.17799">
        <ele>382</ele>
        <time>2018-04-06T10:11:07Z</time>
      </trkpt>
      <trkpt lat="47.54039" lon="7.17823">
        <ele>382</ele>
        <time>2018-04-06T10:11:17Z</time>
      </trkpt>
      <trkpt lat="47.54031" lon="7.1785">
        <ele>387</ele>
        <time>2018-04-06T10:11:29Z</time>
      </trkpt>
      <trkpt lat="47.54024" lon="7.17878">
        <ele>388</ele>
        <time>2018-04-06T10:11:41Z</time>
      </trkpt>
      <trkpt lat="47.54017" lon="7.17903">
        <ele>388</ele>
        <time>2018-04-06T10:11:51Z</time>
      </trkpt>
      <trkpt lat="47.5401" lon="7.17931">
        <ele>391</ele>
        <time>2018-04-06T10:12:03Z</time>
      </trkpt>
      <trkpt lat="47.54019" lon="7.17961">
        <ele>394</ele>
        <time>2018-04-06T10:12:17Z</time>
      </trkpt>
      <trkpt lat="47.54026" lon="7.17987">
        <ele>395</ele>
        <time>2018-04-06T10:12:29Z</time>
      </trkpt>
      <trkpt lat="47.5404" lon="7.1801">
        <ele>398</ele>
        <time>2018-04-06T10:12:41Z</time>
      </trkpt>
      <trkpt lat="47.54053" lon="7.18028">
        <ele>399</ele>
        <time>2018-04-06T10:12:51Z</time>
      </trkpt>
      <trkpt lat="47.54066" lon="7.18047">
        <ele>400</ele>
        <time>2018-04-06T10:13:01Z</time>
      </trkpt>
      <trkpt lat="47.54079" lon="7.18073">
        <ele>400</ele>
        <time>2018-04-06T10:13:13Z</time>
      </trkpt>
      <trkpt lat="47.5409" lon="7.18097">
        <ele>403</ele>
        <time>2018-04-06T10:13:23Z</time>
      </trkpt>
      <trkpt lat="47.54105" lon="7.1812">
        <ele>404</ele>
        <time>2018-04-06T10:13:35Z</time>
      </trkpt>
      <trkpt lat="47.54122" lon="7.18132">
        <ele>405</ele>
        <time>2018-04-06T10:13:45Z</time>
      </trkpt>
      <trkpt lat="47.54139" lon="7.18151">
        <ele>406</ele>
        <time>2018-04-06T10:13:57Z</time>
      </trkpt>
      <trkpt lat="47.54152" lon="7.18169">
        <ele>407</ele>
        <time>2018-04-06T10:14:09Z</time>
      </trkpt>
      <trkpt lat="47.54169" lon="7.18186">
        <ele>408</ele>
        <time>2018-04-06T10:14:19Z</time>
      </trkpt>
      <trkpt lat="47.54184" lon="7.18205">
        <ele>408</ele>
        <time>2018-04-06T10:14:31Z</time>
      </trkpt>
      <trkpt lat="47.54196" lon="7.18229">
        <ele>408</ele>
        <time>2018-04-06T10:14:45Z</time>
      </trkpt>
      <trkpt lat="47.54206" lon="7.18256">
        <ele>407</ele>
        <time>2018-04-06T10:14:57Z</time>
      </trkpt>
      <trkpt lat="47.54219" lon="7.18278">
        <ele>407</ele>
        <time>2018-04-06T10:15:09Z</time>
      </trkpt>
      <trkpt lat="47.54231" lon="7.18299">
        <ele>406</ele>
        <time>2018-04-06T10:15:19Z</time>
      </trkpt>
      <trkpt lat="47.5424" lon="7.18324">
        <ele>405</ele>
        <time>2018-04-06T10:15:29Z</time>
      </trkpt>
      <trkpt lat="47.54244" lon="7.18351">
        <ele>405</ele>
        <time>2018-04-06T10:15:37Z</time>
      </trkpt>
      <trkpt lat="47.54249" lon="7.18381">
        <ele>405</ele>
        <time>2018-04-06T10:15:47Z</time>
      </trkpt>
      <trkpt lat="47.54252" lon="7.18407">
        <ele>404</ele>
        <time>2018-04-06T10:15:57Z</time>
      </trkpt>
      <trkpt lat="47.54251" lon="7.18437">
        <ele>404</ele>
        <time>2018-04-06T10:16:09Z</time>
      </trkpt>
      <trkpt lat="47.54247" lon="7.18468">
        <ele>406</ele>
        <time>2018-04-06T10:16:21Z</time>
      </trkpt>
      <trkpt lat="47.54249" lon="7.18497">
        <ele>405</ele>
        <time>2018-04-06T10:16:33Z</time>
      </trkpt>
      <trkpt lat="47.54262" lon="7.18523">
        <ele>405</ele>
        <time>2018-04-06T10:16:45Z</time>
      </trkpt>
      <trkpt lat="47.54274" lon="7.18548">
        <ele>406</ele>
        <time>2018-04-06T10:16:57Z</time>
      </trkpt>
      <trkpt lat="47.54288" lon="7.18571">
        <ele>406</ele>
        <time>2018-04-06T10:17:09Z</time>
      </trkpt>
      <trkpt lat="47.54301" lon="7.18596">
        <ele>407</ele>
        <time>2018-04-06T10:17:21Z</time>
      </trkpt>
      <trkpt lat="47.54314" lon="7.18618">
        <ele>407</ele>
        <time>2018-04-06T10:17:33Z</time>
      </trkpt>
      <trkpt lat="47.54326" lon="7.18638">
        <ele>408</ele>
        <time>2018-04-06T10:17:43Z</time>
      </trkpt>
      <trkpt lat="47.54339" lon="7.18662">
        <ele>408</ele>
        <time>2018-04-06T10:17:55Z</time>
      </trkpt>
      <trkpt lat="47.54353" lon="7.18686">
        <ele>409</ele>
        <time>2018-04-06T10:18:07Z</time>
      </trkpt>
      <trkpt lat="47.54367" lon="7.18709">
        <ele>409</ele>
        <time>2018-04-06T10:18:19Z</time>
      </trkpt>
      <trkpt lat="47.54381" lon="7.18731">
        <ele>409</ele>
        <time>2018-04-06T10:18:31Z</time>
      </trkpt>
      <trkpt lat="47.54395" lon="7.18754">
        <ele>410</ele>
        <time>2018-04-06T10:18:43Z</time>
      </trkpt>
      <trkpt lat="47.54408" lon="7.18777">
        <ele>411</ele>
        <time>2018-04-06T10:18:55Z</time>
      </trkpt>
      <trkpt lat="47.54424" lon="7.188">
        <ele>411</ele>
        <time>2018-04-06T10:19:07Z</time>
      </trkpt>
      <trkpt lat="47.54439" lon="7.18821">
        <ele>411</ele>
        <time>2018-04-06T10:19:19Z</time>
      </trkpt>
      <trkpt lat="47.54453" lon="7.18843">
        <ele>412</ele>
        <time>2018-04-06T10:19:31Z</time>
      </trkpt>
      <trkpt lat="47.54469" lon="7.18865">
        <ele>412</ele>
        <time>2018-04-06T10:19:43Z</time>
      </trkpt>
      <trkpt lat="47.54483" lon="7.18887">
        <ele>412</ele>
        <time>2018-04-06T10:19:55Z</time>
      </trkpt>
      <trkpt lat="47.54498" lon="7.18908">
        <ele>412</ele>
        <time>2018-04-06T10:20:07Z</time>
      </trkpt>
      <trkpt lat="47.54514" lon="7.18928">
        <ele>411</ele>
        <time>2018-04-06T10:20:19Z</time>
      </trkpt>
      <trkpt lat="47.54531" lon="7.18942">
        <ele>411</ele>
        <time>2018-04-06T10:20:31Z</time>
      </trkpt>
      <trkpt lat="47.54548" lon="7.18926">
        <ele>411</ele>
        <time>2018-04-06T10:20:43Z</time>
      </trkpt>
      <trkpt lat="47.54561" lon="7.18908">
        <ele>412</ele>
        <time>2018-04-06T10:20:53Z</time>
      </trkpt>
      <trkpt lat="47.54577" lon="7.18888">
        <ele>412</ele>
        <time>2018-04-06T10:21:05Z</time>
      </trkpt>
      <trkpt lat="47.54593" lon="7.18867">
        <ele>411</ele>
        <time>2018-04-06T10:21:17Z</time>
      </trkpt>
      <trkpt lat="47.54609" lon="7.18847">
        <ele>411</ele>
        <time>2018-04-06T10:21:29Z</time>
      </trkpt>
      <trkpt lat="47.54625" lon="7.18826">
        <ele>410</ele>
        <time>2018-04-06T10:21:41Z</time>
      </trkpt>
      <trkpt lat="47.5464" lon="7.18807">
        <ele>409</ele>
        <time>2018-04-06T10:21:51Z</time>
      </trkpt>
      <trkpt lat="47.54654" lon="7.18789">
        <ele>409</ele>
        <time>2018-04-06T10:22:01Z</time>
      </trkpt>
      <trkpt lat="47.54668" lon="7.18771">
        <ele>408</ele>
        <time>2018-04-06T10:22:11Z</time>
      </trkpt>
      <trkpt lat="47.54684" lon="7.18753">
        <ele>408</ele>
        <time>2018-04-06T10:22:21Z</time>
      </trkpt>
      <trkpt lat="47.54702" lon="7.18736">
        <ele>408</ele>
        <time>2018-04-06T10:22:33Z</time>
      </trkpt>
      <trkpt lat="47.54717" lon="7.18721">
        <ele>408</ele>
        <time>2018-04-06T10:22:43Z</time>
      </trkpt>
      <trkpt lat="47.54736" lon="7.18709">
        <ele>408</ele>
        <time>2018-04-06T10:22:55Z</time>
      </trkpt>
      <trkpt lat="47.54757" lon="7.1871">
        <ele>409</ele>
        <time>2018-04-06T10:23:07Z</time>
      </trkpt>
      <trkpt lat="47.54777" lon="7.1872">
        <ele>409</ele>
        <time>2018-04-06T10:23:19Z</time>
      </trkpt>
      <trkpt lat="47.54793" lon="7.18738">
        <ele>409</ele>
        <time>2018-04-06T10:23:29Z</time>
      </trkpt>
      <trkpt lat="47.54809" lon="7.18753">
        <ele>409</ele>
        <time>2018-04-06T10:23:39Z</time>
      </trkpt>
      <trkpt lat="47.54825" lon="7.18771">
        <ele>409</ele>
        <time>2018-04-06T10:23:51Z</time>
      </trkpt>
      <trkpt lat="47.54839" lon="7.18788">
        <ele>411</ele>
        <time>2018-04-06T10:24:01Z</time>
      </trkpt>
      <trkpt lat="47.54855" lon="7.18806">
        <ele>412</ele>
        <time>2018-04-06T10:24:13Z</time>
      </trkpt>
      <trkpt lat="47.54869" lon="7.18824">
        <ele>412</ele>
        <time>2018-04-06T10:24:23Z</time>
      </trkpt>
      <trkpt lat="47.54888" lon="7.18841">
        <ele>410</ele>
        <time>2018-04-06T10:24:35Z</time>
      </trkpt>
      <trkpt lat="47.54903" lon="7.18856">
        <ele>410</ele>
        <time>2018-04-06T10:24:45Z</time>
      </trkpt>
      <trkpt lat="47.54919" lon="7.1887">
        <ele>411</ele>
        <time>2018-04-06T10:24:55Z</time>
      </trkpt>
      <trkpt lat="47.54936" lon="7.18884">
        <ele>410</ele>
        <time>2018-04-06T10:25:05Z</time>
      </trkpt>
      <trkpt lat="47.54955" lon="7.18892">
        <ele>410</ele>
        <time>2018-04-06T10:25:17Z</time>
      </trkpt>
      <trkpt lat="47.5497" lon="7.18872">
        <ele>411</ele>
        <time>2018-04-06T10:25:29Z</time>
      </trkpt>
      <trkpt lat="47.54982" lon="7.1885">
        <ele>412</ele>
        <time>2018-04-06T10:25:39Z</time>
      </trkpt>
      <trkpt lat="47.54993" lon="7.18829">
        <ele>415</ele>
        <time>2018-04-06T10:25:49Z</time>
      </trkpt>
      <trkpt lat="47.55005" lon="7.18808">
        <ele>417</ele>
        <time>2018-04-06T10:26:01Z</time>
      </trkpt>
      <trkpt lat="47.55016" lon="7.18785">
        <ele>419</ele>
        <time>2018-04-06T10:26:13Z</time>
      </trkpt>
      <trkpt lat="47.55028" lon="7.1876">
        <ele>420</ele>
        <time>2018-04-06T10:26:25Z</time>
      </trkpt>
      <trkpt lat="47.55039" lon="7.18733">
        <ele>422</ele>
        <time>2018-04-06T10:26:37Z</time>
      </trkpt>
      <trkpt lat="47.5505" lon="7.18709">
        <ele>423</ele>
        <time>2018-04-06T10:26:49Z</time>
      </trkpt>
      <trkpt lat="47.55059" lon="7.18681">
        <ele>423</ele>
        <time>2018-04-06T10:27:01Z</time>
      </trkpt>
      <trkpt lat="47.55071" lon="7.18655">
        <ele>424</ele>
        <time>2018-04-06T10:27:13Z</time>
      </trkpt>
      <trkpt lat="47.55083" lon="7.18629">
        <ele>424</ele>
        <time>2018-04-06T10:27:25Z</time>
      </trkpt>
      <trkpt lat="47.55095" lon="7.18604">
        <ele>424</ele>
        <time>2018-04-06T10:27:37Z</time>
      </trkpt>
      <trkpt lat="47.55106" lon="7.18582">
        <ele>424</ele>
        <time>2018-04-06T10:27:47Z</time>
      </trkpt>
      <trkpt lat="47.55117" lon="7.18555">
        <ele>423</ele>
        <time>2018-04-06T10:27:59Z</time>
      </trkpt>
      <trkpt lat="47.55126" lon="7.18531">
        <ele>423</ele>
        <time>2018-04-06T10:28:15Z</time>
      </trkpt>
      <trkpt lat="47.55136" lon="7.18508">
        <ele>423</ele>
        <time>2018-04-06T10:28:29Z</time>
      </trkpt>
      <trkpt lat="47.55146" lon="7.18485">
        <ele>422</ele>
        <time>2018-04-06T10:28:41Z</time>
      </trkpt>
      <trkpt lat="47.55157" lon="7.18463">
        <ele>422</ele>
        <time>2018-04-06T10:28:51Z</time>
      </trkpt>
      <trkpt lat="47.55167" lon="7.18436">
        <ele>420</ele>
        <time>2018-04-06T10:29:03Z</time>
      </trkpt>
      <trkpt lat="47.55177" lon="7.18411">
        <ele>420</ele>
        <time>2018-04-06T10:29:13Z</time>
      </trkpt>
      <trkpt lat="47.55187" lon="7.18387">
        <ele>420</ele>
        <time>2018-04-06T10:29:23Z</time>
      </trkpt>
      <trkpt lat="47.55198" lon="7.18359">
        <ele>420</ele>
        <time>2018-04-06T10:29:35Z</time>
      </trkpt>
      <trkpt lat="47.55211" lon="7.18335">
        <ele>419</ele>
        <time>2018-04-06T10:29:47Z</time>
      </trkpt>
      <trkpt lat="47.55222" lon="7.18308">
        <ele>419</ele>
        <time>2018-04-06T10:29:59Z</time>
      </trkpt>
      <trkpt lat="47.55232" lon="7.18285">
        <ele>418</ele>
        <time>2018-04-06T10:30:09Z</time>
      </trkpt>
      <trkpt lat="47.55243" lon="7.18258">
        <ele>417</ele>
        <time>2018-04-06T10:30:21Z</time>
      </trkpt>
      <trkpt lat="47.55253" lon="7.18234">
        <ele>415</ele>
        <time>2018-04-06T10:30:31Z</time>
      </trkpt>
      <trkpt lat="47.55263" lon="7.18211">
        <ele>414</ele>
        <time>2018-04-06T10:30:41Z</time>
      </trkpt>
      <trkpt lat="47.55275" lon="7.18185">
        <ele>414</ele>
        <time>2018-04-06T10:30:53Z</time>
      </trkpt>
      <trkpt lat="47.55284" lon="7.18161">
        <ele>414</ele>
        <time>2018-04-06T10:31:03Z</time>
      </trkpt>
      <trkpt lat="47.55295" lon="7.1814">
        <ele>414</ele>
        <time>2018-04-06T10:31:13Z</time>
      </trkpt>
      <trkpt lat="47.55305" lon="7.18116">
        <ele>414</ele>
        <time>2018-04-06T10:31:23Z</time>
      </trkpt>
      <trkpt lat="47.55316" lon="7.1809">
        <ele>414</ele>
        <time>2018-04-06T10:31:35Z</time>
      </trkpt>
      <trkpt lat="47.55325" lon="7.18064">
        <ele>415</ele>
        <time>2018-04-06T10:31:47Z</time>
      </trkpt>
      <trkpt lat="47.55334" lon="7.18041">
        <ele>413</ele>
        <time>2018-04-06T10:31:57Z</time>
      </trkpt>
      <trkpt lat="47.55344" lon="7.18014">
        <ele>414</ele>
        <time>2018-04-06T10:32:09Z</time>
      </trkpt>
      <trkpt lat="47.55355" lon="7.17987">
        <ele>413</ele>
        <time>2018-04-06T10:32:21Z</time>
      </trkpt>
      <trkpt lat="47.55364" lon="7.17963">
        <ele>413</ele>
        <time>2018-04-06T10:32:31Z</time>
      </trkpt>
      <trkpt lat="47.55373" lon="7.17935">
        <ele>412</ele>
        <time>2018-04-06T10:32:43Z</time>
      </trkpt>
      <trkpt lat="47.55382" lon="7.17909">
        <ele>412</ele>
        <time>2018-04-06T10:32:53Z</time>
      </trkpt>
      <trkpt lat="47.55391" lon="7.17884">
        <ele>411</ele>
        <time>2018-04-06T10:33:03Z</time>
      </trkpt>
      <trkpt lat="47.554" lon="7.1786">
        <ele>411</ele>
        <time>2018-04-06T10:33:13Z</time>
      </trkpt>
      <trkpt lat="47.55409" lon="7.17835">
        <ele>410</ele>
        <time>2018-04-06T10:33:23Z</time>
      </trkpt>
      <trkpt lat="47.55421" lon="7.17809">
        <ele>408</ele>
        <time>2018-04-06T10:33:35Z</time>
      </trkpt>
      <trkpt lat="47.55429" lon="7.17785">
        <ele>408</ele>
        <time>2018-04-06T10:33:45Z</time>
      </trkpt>
      <trkpt lat="47.55438" lon="7.1776">
        <ele>408</ele>
        <time>2018-04-06T10:33:55Z</time>
      </trkpt>
      <trkpt lat="47.55447" lon="7.17737">
        <ele>408</ele>
        <time>2018-04-06T10:34:05Z</time>
      </trkpt>
      <trkpt lat="47.55457" lon="7.1771">
        <ele>408</ele>
        <time>2018-04-06T10:34:17Z</time>
      </trkpt>
      <trkpt lat="47.55467" lon="7.17686">
        <ele>408</ele>
        <time>2018-04-06T10:34:27Z</time>
      </trkpt>
      <trkpt lat="47.55477" lon="7.17658">
        <ele>408</ele>
        <time>2018-04-06T10:34:39Z</time>
      </trkpt>
      <trkpt lat="47.55488" lon="7.17633">
        <ele>409</ele>
        <time>2018-04-06T10:34:51Z</time>
      </trkpt>
      <trkpt lat="47.55494" lon="7.17608">
        <ele>409</ele>
        <time>2018-04-06T10:35:01Z</time>
      </trkpt>
      <trkpt lat="47.55501" lon="7.1758">
        <ele>409</ele>
        <time>2018-04-06T10:35:13Z</time>
      </trkpt>
      <trkpt lat="47.55507" lon="7.17549">
        <ele>409</ele>
        <time>2018-04-06T10:35:25Z</time>
      </trkpt>
      <trkpt lat="47.5551" lon="7.17522">
        <ele>410</ele>
        <time>2018-04-06T10:35:35Z</time>
      </trkpt>
      <trkpt lat="47.55514" lon="7.17496">
        <ele>410</ele>
        <time>2018-04-06T10:35:45Z</time>
      </trkpt>
      <trkpt lat="47.55528" lon="7.17474">
        <ele>408</ele>
        <time>2018-04-06T10:35:57Z</time>
      </trkpt>
      <trkpt lat="47.55545" lon="7.17457">
        <ele>407</ele>
        <time>2018-04-06T10:36:09Z</time>
      </trkpt>
      <trkpt lat="47.55562" lon="7.17439">
        <ele>406</ele>
        <time>2018-04-06T10:36:21Z</time>
      </trkpt>
      <trkpt lat="47.55575" lon="7.17418">
        <ele>404</ele>
        <time>2018-04-06T10:36:31Z</time>
      </trkpt>
      <trkpt lat="47.55586" lon="7.17395">
        <ele>397</ele>
        <time>2018-04-06T10:36:41Z</time>
      </trkpt>
      <trkpt lat="47.556" lon="7.17376">
        <ele>394</ele>
        <time>2018-04-06T10:36:51Z</time>
      </trkpt>
      <trkpt lat="47.55617" lon="7.17368">
        <ele>393</ele>
        <time>2018-04-06T10:37:01Z</time>
      </trkpt>
      <trkpt lat="47.55637" lon="7.17361">
        <ele>391</ele>
        <time>2018-04-06T10:37:11Z</time>
      </trkpt>
      <trkpt lat="47.55655" lon="7.17355">
        <ele>390</ele>
        <time>2018-04-06T10:37:21Z</time>
      </trkpt>
      <trkpt lat="47.55676" lon="7.1735">
        <ele>385</ele>
        <time>2018-04-06T10:37:33Z</time>
      </trkpt>
      <trkpt lat="47.55695" lon="7.17344">
        <ele>384</ele>
        <time>2018-04-06T10:37:43Z</time>
      </trkpt>
      <trkpt lat="47.55713" lon="7.17338">
        <ele>383</ele>
        <time>2018-04-06T10:37:53Z</time>
      </trkpt>
      <trkpt lat="47.55733" lon="7.1733">
        <ele>382</ele>
        <time>2018-04-06T10:38:05Z</time>
      </trkpt>
      <trkpt lat="47.55732" lon="7.17298">
        <ele>382</ele>
        <time>2018-04-06T10:38:17Z</time>
      </trkpt>
      <trkpt lat="47.55725" lon="7.1727">
        <ele>382</ele>
        <time>2018-04-06T10:38:27Z</time>
      </trkpt>
      <trkpt lat="47.55719" lon="7.17241">
        <ele>382</ele>
        <time>2018-04-06T10:38:39Z</time>
      </trkpt>
      <trkpt lat="47.55712" lon="7.17214">
        <ele>383</ele>
        <time>2018-04-06T10:38:49Z</time>
      </trkpt>
      <trkpt lat="47.55705" lon="7.17189">
        <ele>383</ele>
        <time>2018-04-06T10:38:59Z</time>
      </trkpt>
      <trkpt lat="47.55697" lon="7.17161">
        <ele>383</ele>
        <time>2018-04-06T10:39:11Z</time>
      </trkpt>
      <trkpt lat="47.55689" lon="7.17135">
        <ele>383</ele>
        <time>2018-04-06T10:39:21Z</time>
      </trkpt>
      <trkpt lat="47.55683" lon="7.17106">
        <ele>384</ele>
        <time>2018-04-06T10:39:33Z</time>
      </trkpt>
      <trkpt lat="47.55678" lon="7.17077">
        <ele>385</ele>
        <time>2018-04-06T10:39:45Z</time>
      </trkpt>
      <trkpt lat="47.55675" lon="7.17046">
        <ele>384</ele>
        <time>2018-04-06T10:39:57Z</time>
      </trkpt>
      <trkpt lat="47.55671" lon="7.17018">
        <ele>384</ele>
        <time>2018-04-06T10:40:07Z</time>
      </trkpt>
      <trkpt lat="47.55667" lon="7.1699">
        <ele>385</ele>
        <time>2018-04-06T10:40:17Z</time>
      </trkpt>
      <trkpt lat="47.55664" lon="7.16959">
        <ele>388</ele>
        <time>2018-04-06T10:40:29Z</time>
      </trkpt>
      <trkpt lat="47.5566" lon="7.16927">
        <ele>387</ele>
        <time>2018-04-06T10:40:41Z</time>
      </trkpt>
      <trkpt lat="47.55657" lon="7.169">
        <ele>387</ele>
        <time>2018-04-06T10:40:51Z</time>
      </trkpt>
      <trkpt lat="47.55654" lon="7.16874">
        <ele>387</ele>
        <time>2018-04-06T10:41:01Z</time>
      </trkpt>
      <trkpt lat="47.55649" lon="7.16845">
        <ele>386</ele>
        <time>2018-04-06T10:41:13Z</time>
      </trkpt>
      <trkpt lat="47.55645" lon="7.16818">
        <ele>385</ele>
        <time>2018-04-06T10:41:23Z</time>
      </trkpt>
      <trkpt lat="47.5564" lon="7.16787">
        <ele>384</ele>
        <time>2018-04-06T10:41:35Z</time>
      </trkpt>
      <trkpt lat="47.55637" lon="7.1676">
        <ele>384</ele>
        <time>2018-04-06T10:41:45Z</time>
      </trkpt>
      <trkpt lat="47.55633" lon="7.16734">
        <ele>382</ele>
        <time>2018-04-06T10:41:55Z</time>
      </trkpt>
      <trkpt lat="47.55629" lon="7.16707">
        <ele>381</ele>
        <time>2018-04-06T10:42:05Z</time>
      </trkpt>
      <trkpt lat="47.55625" lon="7.1668">
        <ele>381</ele>
        <time>2018-04-06T10:42:15Z</time>
      </trkpt>
      <trkpt lat="47.55621" lon="7.16649">
        <ele>378</ele>
        <time>2018-04-06T10:42:27Z</time>
      </trkpt>
      <trkpt lat="47.55616" lon="7.16622">
        <ele>378</ele>
        <time>2018-04-06T10:42:37Z</time>
      </trkpt>
      <trkpt lat="47.5561" lon="7.16596">
        <ele>377</ele>
        <time>2018-04-06T10:42:47Z</time>
      </trkpt>
      <trkpt lat="47.55604" lon="7.1657">
        <ele>374</ele>
        <time>2018-04-06T10:42:57Z</time>
      </trkpt>
      <trkpt lat="47.55596" lon="7.16542">
        <ele>373</ele>
        <time>2018-04-06T10:43:09Z</time>
      </trkpt>
      <trkpt lat="47.55589" lon="7.16516">
        <ele>372</ele>
        <time>2018-04-06T10:43:19Z</time>
      </trkpt>
      <trkpt lat="47.55583" lon="7.16488">
        <ele>370</ele>
        <time>2018-04-06T10:43:30Z</time>
      </trkpt>
      <trkpt lat="47.55581" lon="7.16456">
        <ele>369</ele>
        <time>2018-04-06T10:43:42Z</time>
      </trkpt>
      <trkpt lat="47.55591" lon="7.16428">
        <ele>368</ele>
        <time>2018-04-06T10:43:54Z</time>
      </trkpt>
      <trkpt lat="47.55599" lon="7.164">
        <ele>366</ele>
        <time>2018-04-06T10:44:06Z</time>
      </trkpt>
      <trkpt lat="47.55601" lon="7.16368">
        <ele>365</ele>
        <time>2018-04-06T10:44:18Z</time>
      </trkpt>
      <trkpt lat="47.55596" lon="7.16341">
        <ele>365</ele>
        <time>2018-04-06T10:44:28Z</time>
      </trkpt>
      <trkpt lat="47.55585" lon="7.16319">
        <ele>363</ele>
        <time>2018-04-06T10:44:38Z</time>
      </trkpt>
      <trkpt lat="47.55569" lon="7.16304">
        <ele>363</ele>
        <time>2018-04-06T10:44:48Z</time>
      </trkpt>
      <trkpt lat="47.55551" lon="7.16292">
        <ele>362</ele>
        <time>2018-04-06T10:44:58Z</time>
      </trkpt>
      <trkpt lat="47.55533" lon="7.16283">
        <ele>362</ele>
        <time>2018-04-06T10:45:09Z</time>
      </trkpt>
      <trkpt lat="47.55515" lon="7.16269">
        <ele>361</ele>
        <time>2018-04-06T10:45:19Z</time>
      </trkpt>
      <trkpt lat="47.55499" lon="7.16249">
        <ele>360</ele>
        <time>2018-04-06T10:45:29Z</time>
      </trkpt>
      <trkpt lat="47.55487" lon="7.16227">
        <ele>358</ele>
        <time>2018-04-06T10:45:39Z</time>
      </trkpt>
      <trkpt lat="47.55476" lon="7.16203">
        <ele>357</ele>
        <time>2018-04-06T10:45:49Z</time>
      </trkpt>
      <trkpt lat="47.55462" lon="7.16179">
        <ele>356</ele>
        <time>2018-04-06T10:45:59Z</time>
      </trkpt>
      <trkpt lat="47.55467" lon="7.16208">
        <ele>357</ele>
        <time>2018-04-06T10:46:21Z</time>
      </trkpt>
      <trkpt lat="47.55478" lon="7.1623">
        <ele>358</ele>
        <time>2018-04-06T10:46:31Z</time>
      </trkpt>
      <trkpt lat="47.55489" lon="7.16251">
        <ele>360</ele>
        <time>2018-04-06T10:46:41Z</time>
      </trkpt>
      <trkpt lat="47.55476" lon="7.16272">
        <ele>361</ele>
        <time>2018-04-06T10:46:53Z</time>
      </trkpt>
      <trkpt lat="47.55457" lon="7.16277">
        <ele>361</ele>
        <time>2018-04-06T10:47:03Z</time>
      </trkpt>
      <trkpt lat="47.55437" lon="7.16282">
        <ele>360</ele>
        <time>2018-04-06T10:47:13Z</time>
      </trkpt>
      <trkpt lat="47.55415" lon="7.16285">
        <ele>360</ele>
        <time>2018-04-06T10:47:25Z</time>
      </trkpt>
      <trkpt lat="47.55395" lon="7.16288">
        <ele>360</ele>
        <time>2018-04-06T10:47:37Z</time>
      </trkpt>
      <trkpt lat="47.55377" lon="7.16293">
        <ele>360</ele>
        <time>2018-04-06T10:47:47Z</time>
      </trkpt>
      <trkpt lat="47.55358" lon="7.16297">
        <ele>360</ele>
        <time>2018-04-06T10:47:59Z</time>
      </trkpt>
      <trkpt lat="47.55339" lon="7.16303">
        <ele>360</ele>
        <time>2018-04-06T10:48:09Z</time>
      </trkpt>
      <trkpt lat="47.55319" lon="7.16307">
        <ele>360</ele>
        <time>2018-04-06T10:48:19Z</time>
      </trkpt>
      <trkpt lat="47.55299" lon="7.16312">
        <ele>359</ele>
        <time>2018-04-06T10:48:29Z</time>
      </trkpt>
      <trkpt lat="47.55283" lon="7.16325">
        <ele>359</ele>
        <time>2018-04-06T10:48:39Z</time>
      </trkpt>
      <trkpt lat="47.5527" lon="7.16348">
        <ele>362</ele>
        <time>2018-04-06T10:48:49Z</time>
      </trkpt>
      <trkpt lat="47.55265" lon="7.16377">
        <ele>363</ele>
        <time>2018-04-06T10:49:01Z</time>
      </trkpt>
      <trkpt lat="47.55257" lon="7.16401">
        <ele>365</ele>
        <time>2018-04-06T10:49:11Z</time>
      </trkpt>
      <trkpt lat="47.5524" lon="7.16416">
        <ele>365</ele>
        <time>2018-04-06T10:49:23Z</time>
      </trkpt>
      <trkpt lat="47.5522" lon="7.16421">
        <ele>368</ele>
        <time>2018-04-06T10:49:35Z</time>
      </trkpt>
      <trkpt lat="47.55201" lon="7.16423">
        <ele>368</ele>
        <time>2018-04-06T10:49:47Z</time>
      </trkpt>
      <trkpt lat="47.55182" lon="7.16427">
        <ele>368</ele>
        <time>2018-04-06T10:49:59Z</time>
      </trkpt>
      <trkpt lat="47.55162" lon="7.16428">
        <ele>368</ele>
        <time>2018-04-06T10:50:11Z</time>
      </trkpt>
      <trkpt lat="47.55144" lon="7.16431">
        <ele>369</ele>
        <time>2018-04-06T10:50:23Z</time>
      </trkpt>
      <trkpt lat="47.55123" lon="7.16434">
        <ele>369</ele>
        <time>2018-04-06T10:50:35Z</time>
      </trkpt>
      <trkpt lat="47.55105" lon="7.16437">
        <ele>369</ele>
        <time>2018-04-06T10:50:45Z</time>
      </trkpt>
      <trkpt lat="47.55087" lon="7.16438">
        <ele>368</ele>
        <time>2018-04-06T10:50:55Z</time>
      </trkpt>
      <trkpt lat="47.55069" lon="7.16441">
        <ele>369</ele>
        <time>2018-04-06T10:51:07Z</time>
      </trkpt>
      <trkpt lat="47.55049" lon="7.16446">
        <ele>369</ele>
        <time>2018-04-06T10:51:19Z</time>
      </trkpt>
      <trkpt lat="47.55029" lon="7.16449">
        <ele>369</ele>
        <time>2018-04-06T10:51:31Z</time>
      </trkpt>
      <trkpt lat="47.55011" lon="7.16452">
        <ele>369</ele>
        <time>2018-04-06T10:51:41Z</time>
      </trkpt>
      <trkpt lat="47.54992" lon="7.16459">
        <ele>370</ele>
        <time>2018-04-06T10:51:53Z</time>
      </trkpt>
      <trkpt lat="47.54974" lon="7.16467">
        <ele>370</ele>
        <time>2018-04-06T10:52:03Z</time>
      </trkpt>
      <trkpt lat="47.54953" lon="7.16474">
        <ele>370</ele>
        <time>2018-04-06T10:52:15Z</time>
      </trkpt>
      <trkpt lat="47.54936" lon="7.16483">
        <ele>371</ele>
        <time>2018-04-06T10:52:23Z</time>
      </trkpt>
      <trkpt lat="47.54916" lon="7.16494">
        <ele>372</ele>
        <time>2018-04-06T10:52:33Z</time>
      </trkpt>
      <trkpt lat="47.54896" lon="7.16506">
        <ele>373</ele>
        <time>2018-04-06T10:52:43Z</time>
      </trkpt>
      <trkpt lat="47.54879" lon="7.16516">
        <ele>373</ele>
        <time>2018-04-06T10:52:51Z</time>
      </trkpt>
      <trkpt lat="47.54859" lon="7.16531">
        <ele>373</ele>
        <time>2018-04-06T10:53:01Z</time>
      </trkpt>
      <trkpt lat="47.54842" lon="7.16542">
        <ele>374</ele>
        <time>2018-04-06T10:53:11Z</time>
      </trkpt>
      <trkpt lat="47.54825" lon="7.16556">
        <ele>374</ele>
        <time>2018-04-06T10:53:23Z</time>
      </trkpt>
      <trkpt lat="47.54808" lon="7.16573">
        <ele>374</ele>
        <time>2018-04-06T10:53:35Z</time>
      </trkpt>
      <trkpt lat="47.5479" lon="7.16588">
        <ele>378</ele>
        <time>2018-04-06T10:53:47Z</time>
      </trkpt>
      <trkpt lat="47.54775" lon="7.16606">
        <ele>378</ele>
        <time>2018-04-06T10:53:59Z</time>
      </trkpt>
      <trkpt lat="47.54761" lon="7.16624">
        <ele>379</ele>
        <time>2018-04-06T10:54:11Z</time>
      </trkpt>
      <trkpt lat="47.54746" lon="7.16644">
        <ele>376</ele>
        <time>2018-04-06T10:54:23Z</time>
      </trkpt>
      <trkpt lat="47.54731" lon="7.16664">
        <ele>377</ele>
        <time>2018-04-06T10:54:35Z</time>
      </trkpt>
      <trkpt lat="47.54717" lon="7.1668">
        <ele>379</ele>
        <time>2018-04-06T10:54:45Z</time>
      </trkpt>
      <trkpt lat="47.54702" lon="7.16697">
        <ele>378</ele>
        <time>2018-04-06T10:54:55Z</time>
      </trkpt>
      <trkpt lat="47.54689" lon="7.16715">
        <ele>378</ele>
        <time>2018-04-06T10:55:05Z</time>
      </trkpt>
      <trkpt lat="47.54671" lon="7.16733">
        <ele>378</ele>
        <time>2018-04-06T10:55:15Z</time>
      </trkpt>
      <trkpt lat="47.54652" lon="7.1675">
        <ele>374</ele>
        <time>2018-04-06T10:55:25Z</time>
      </trkpt>
      <trkpt lat="47.54635" lon="7.1677">
        <ele>375</ele>
        <time>2018-04-06T10:55:35Z</time>
      </trkpt>
      <trkpt lat="47.5462" lon="7.16788">
        <ele>375</ele>
        <time>2018-04-06T10:55:45Z</time>
      </trkpt>
      <trkpt lat="47.54605" lon="7.16806">
        <ele>375</ele>
        <time>2018-04-06T10:55:55Z</time>
      </trkpt>
      <trkpt lat="47.54591" lon="7.16827">
        <ele>376</ele>
        <time>2018-04-06T10:56:07Z</time>
      </trkpt>
      <trkpt lat="47.54576" lon="7.16849">
        <ele>376</ele>
        <time>2018-04-06T10:56:17Z</time>
      </trkpt>
      <trkpt lat="47.54562" lon="7.16867">
        <ele>377</ele>
        <time>2018-04-06T10:56:27Z</time>
      </trkpt>
      <trkpt lat="47.54547" lon="7.16889">
        <ele>377</ele>
        <time>2018-04-06T10:56:39Z</time>
      </trkpt>
      <trkpt lat="47.54532" lon="7.16909">
        <ele>377</ele>
        <time>2018-04-06T10:56:51Z</time>
      </trkpt>
      <trkpt lat="47.54516" lon="7.16927">
        <ele>378</ele>
        <time>2018-04-06T10:57:03Z</time>
      </trkpt>
      <trkpt lat="47.545" lon="7.16947">
        <ele>379</ele>
        <time>2018-04-06T10:57:15Z</time>
      </trkpt>
      <trkpt lat="47.54486" lon="7.16965">
        <ele>376</ele>
        <time>2018-04-06T10:57:25Z</time>
      </trkpt>
      <trkpt lat="47.54471" lon="7.16984">
        <ele>376</ele>
        <time>2018-04-06T10:57:35Z</time>
      </trkpt>
      <trkpt lat="47.54458" lon="7.17002">
        <ele>377</ele>
        <time>2018-04-06T10:57:45Z</time>
      </trkpt>
      <trkpt lat="47.54444" lon="7.17024">
        <ele>376</ele>
        <time>2018-04-06T10:57:55Z</time>
      </trkpt>
      <trkpt lat="47.5443" lon="7.17046">
        <ele>376</ele>
        <time>2018-04-06T10:58:05Z</time>
      </trkpt>
      <trkpt lat="47.54416" lon="7.17069">
        <ele>372</ele>
        <time>2018-04-06T10:58:15Z</time>
      </trkpt>
      <trkpt lat="47.54404" lon="7.17092">
        <ele>374</ele>
        <time>2018-04-06T10:58:27Z</time>
      </trkpt>
      <trkpt lat="47.54393" lon="7.17113">
        <ele>375</ele>
        <time>2018-04-06T10:58:37Z</time>
      </trkpt>
      <trkpt lat="47.54381" lon="7.17133">
        <ele>375</ele>
        <time>2018-04-06T10:58:47Z</time>
      </trkpt>
      <trkpt lat="47.54368" lon="7.17155">
        <ele>375</ele>
        <time>2018-04-06T10:58:59Z</time>
      </trkpt>
      <trkpt lat="47.54356" lon="7.17176">
        <ele>379</ele>
        <time>2018-04-06T10:59:09Z</time>
      </trkpt>
      <trkpt lat="47.54345" lon="7.17198">
        <ele>380</ele>
        <time>2018-04-06T10:59:21Z</time>
      </trkpt>
      <trkpt lat="47.54332" lon="7.17222">
        <ele>377</ele>
        <time>2018-04-06T10:59:33Z</time>
      </trkpt>
      <trkpt lat="47.54318" lon="7.17242">
        <ele>378</ele>
        <time>2018-04-06T10:59:41Z</time>
      </trkpt>
      <trkpt lat="47.54306" lon="7.17264">
        <ele>380</ele>
        <time>2018-04-06T10:59:51Z</time>
      </trkpt>
      <trkpt lat="47.5429" lon="7.17285">
        <ele>380</ele>
        <time>2018-04-06T11:00:03Z</time>
      </trkpt>
      <trkpt lat="47.54278" lon="7.17308">
        <ele>380</ele>
        <time>2018-04-06T11:00:15Z</time>
      </trkpt>
      <trkpt lat="47.54264" lon="7.17329">
        <ele>379</ele>
        <time>2018-04-06T11:00:27Z</time>
      </trkpt>
      <trkpt lat="47.5425" lon="7.17349">
        <ele>377</ele>
        <time>2018-04-06T11:00:45Z</time>
      </trkpt>
      <trkpt lat="47.54236" lon="7.17368">
        <ele>377</ele>
        <time>2018-04-06T11:00:55Z</time>
      </trkpt>
      <trkpt lat="47.54224" lon="7.17391">
        <ele>377</ele>
        <time>2018-04-06T11:01:05Z</time>
      </trkpt>
      <trkpt lat="47.5421" lon="7.17414">
        <ele>377</ele>
        <time>2018-04-06T11:01:15Z</time>
      </trkpt>
      <trkpt lat="47.54196" lon="7.17436">
        <ele>379</ele>
        <time>2018-04-06T11:01:25Z</time>
      </trkpt>
      <trkpt lat="47.54184" lon="7.17458">
        <ele>379</ele>
        <time>2018-04-06T11:01:35Z</time>
      </trkpt>
      <trkpt lat="47.54171" lon="7.17479">
        <ele>378</ele>
        <time>2018-04-06T11:01:45Z</time>
      </trkpt>
      <trkpt lat="47.54159" lon="7.17505">
        <ele>375</ele>
        <time>2018-04-06T11:01:57Z</time>
      </trkpt>
      <trkpt lat="47.54145" lon="7.17528">
        <ele>375</ele>
        <time>2018-04-06T11:02:09Z</time>
      </trkpt>
      <trkpt lat="47.54132" lon="7.17552">
        <ele>375</ele>
        <time>2018-04-06T11:02:19Z</time>
      </trkpt>
      <trkpt lat="47.54122" lon="7.17578">
        <ele>376</ele>
        <time>2018-04-06T11:02:29Z</time>
      </trkpt>
      <trkpt lat="47.54112" lon="7.17601">
        <ele>378</ele>
        <time>2018-04-06T11:02:37Z</time>
      </trkpt>
      <trkpt lat="47.54095" lon="7.17611">
        <ele>378</ele>
        <time>2018-04-06T11:02:47Z</time>
      </trkpt>
      <trkpt lat="47.54077" lon="7.17605">
        <ele>374</ele>
        <time>2018-04-06T11:02:57Z</time>
      </trkpt>
      <trkpt lat="47.54058" lon="7.17597">
        <ele>374</ele>
        <time>2018-04-06T11:03:07Z</time>
      </trkpt>
      <trkpt lat="47.54039" lon="7.17586">
        <ele>373</ele>
        <time>2018-04-06T11:03:17Z</time>
      </trkpt>
      <trkpt lat="47.54021" lon="7.17569">
        <ele>372</ele>
        <time>2018-04-06T11:03:29Z</time>
      </trkpt>
      <trkpt lat="47.54005" lon="7.17553">
        <ele>372</ele>
        <time>2018-04-06T11:03:39Z</time>
      </trkpt>
      <trkpt lat="47.5399" lon="7.17537">
        <ele>371</ele>
        <time>2018-04-06T11:03:49Z</time>
      </trkpt>
      <trkpt lat="47.53974" lon="7.17517">
        <ele>371</ele>
        <time>2018-04-06T11:04:01Z</time>
      </trkpt>
      <trkpt lat="47.5396" lon="7.175">
        <ele>371</ele>
        <time>2018-04-06T11:04:11Z</time>
      </trkpt>
      <trkpt lat="47.53946" lon="7.17481">
        <ele>371</ele>
        <time>2018-04-06T11:04:21Z</time>
      </trkpt>
      <trkpt lat="47.53933" lon="7.17461">
        <ele>371</ele>
        <time>2018-04-06T11:04:31Z</time>
      </trkpt>
      <trkpt lat="47.53923" lon="7.17439">
        <ele>371</ele>
        <time>2018-04-06T11:04:41Z</time>
      </trkpt>
      <trkpt lat="47.53912" lon="7.17412">
        <ele>372</ele>
        <time>2018-04-06T11:04:53Z</time>
      </trkpt>
      <trkpt lat="47.53902" lon="7.17388">
        <ele>373</ele>
        <time>2018-04-06T11:05:05Z</time>
      </trkpt>
      <trkpt lat="47.53883" lon="7.17372">
        <ele>373</ele>
        <time>2018-04-06T11:05:17Z</time>
      </trkpt>
      <trkpt lat="47.53868" lon="7.17359">
        <ele>374</ele>
        <time>2018-04-06T11:05:27Z</time>
      </trkpt>
      <trkpt lat="47.53876" lon="7.17331">
        <ele>374</ele>
        <time>2018-04-06T11:05:41Z</time>
      </trkpt>
      <trkpt lat="47.53889" lon="7.17312">
        <ele>374</ele>
        <time>2018-04-06T11:05:51Z</time>
      </trkpt>
      <trkpt lat="47.53904" lon="7.17293">
        <ele>374</ele>
        <time>2018-04-06T11:06:03Z</time>
      </trkpt>
      <trkpt lat="47.53916" lon="7.17274">
        <ele>374</ele>
        <time>2018-04-06T11:06:13Z</time>
      </trkpt>
      <trkpt lat="47.53931" lon="7.17252">
        <ele>372</ele>
        <time>2018-04-06T11:06:27Z</time>
      </trkpt>
      <trkpt lat="47.53944" lon="7.17228">
        <ele>373</ele>
        <time>2018-04-06T11:06:39Z</time>
      </trkpt>
      <trkpt lat="47.53964" lon="7.1723">
        <ele>373</ele>
        <time>2018-04-06T11:06:53Z</time>
      </trkpt>
      <trkpt lat="47.53983" lon="7.17241">
        <ele>372</ele>
        <time>2018-04-06T11:07:05Z</time>
      </trkpt>
      <trkpt lat="47.54002" lon="7.17242">
        <ele>370</ele>
        <time>2018-04-06T11:07:17Z</time>
      </trkpt>
      <trkpt lat="47.54016" lon="7.17224">
        <ele>370</ele>
        <time>2018-04-06T11:07:27Z</time>
      </trkpt>
      <trkpt lat="47.54029" lon="7.17205">
        <ele>370</ele>
        <time>2018-04-06T11:07:37Z</time>
      </trkpt>
      <trkpt lat="47.54044" lon="7.17185">
        <ele>370</ele>
        <time>2018-04-06T11:07:49Z</time>
      </trkpt>
      <trkpt lat="47.54058" lon="7.1716">
        <ele>369</ele>
        <time>2018-04-06T11:08:01Z</time>
      </trkpt>
      <trkpt lat="47.54066" lon="7.17135">
        <ele>369</ele>
        <time>2018-04-06T11:08:11Z</time>
      </trkpt>
      <trkpt lat="47.54075" lon="7.17111">
        <ele>369</ele>
        <time>2018-04-06T11:08:21Z</time>
      </trkpt>
      <trkpt lat="47.54093" lon="7.17111">
        <ele>367</ele>
        <time>2018-04-06T11:08:33Z</time>
      </trkpt>
      <trkpt lat="47.54111" lon="7.17095">
        <ele>367</ele>
        <time>2018-04-06T11:08:45Z</time>
      </trkpt>
      <trkpt lat="47.54123" lon="7.17071">
        <ele>367</ele>
        <time>2018-04-06T11:08:55Z</time>
      </trkpt>
      <trkpt lat="47.5414" lon="7.1706">
        <ele>367</ele>
        <time>2018-04-06T11:09:09Z</time>
      </trkpt>
    </trkseg>
  </trk>
</gpx>